Time;durP1;ratioP1;P1;durP2;ratioP2;P2;SDS_P1;SDS_P2;PMS_P1;PMS_P2;Temp;Humidity;BMP_temperature;BMP_pressure;BME280_temperature;BME280_humidity;BME280_pressure;Samples;Min_cycle;Max_cycle;Signal;HPM_P1;HPM_P2
2022/10/08 00:00:40;;;;;;;;;;;8.80;99.90;;;;;;5094160;28;19967;-67
2022/10/08 00:03:05;;;;;;;;;;;8.70;99.90;;;;;;5094510;28;20367;-67
2022/10/08 00:05:30;;;;;;;;;;;8.70;99.90;;;;;;5094656;28;19920;-67
2022/10/08 00:07:56;;;;;;;;;;;8.70;99.90;;;;;;5094210;28;19908;-67
2022/10/08 00:10:21;;;;;;;;;;;8.70;99.90;;;;;;5094157;28;20428;-67
2022/10/08 00:12:47;;;;;;;;;;;8.70;99.90;;;;;;5094119;28;19940;-67
2022/10/08 00:15:12;;;;;;;;;;;8.70;99.90;;;;;;5094078;28;19916;-67
2022/10/08 00:17:38;;;;;;;;;;;8.60;99.90;;;;;;5094293;28;19941;-67
2022/10/08 00:20:04;;;;;;;;;;;8.60;99.90;;;;;;5093896;28;20370;-67
2022/10/08 00:22:29;;;;;;;;;;;8.60;99.90;;;;;;5094228;28;19948;-67
2022/10/08 00:24:55;;;;;;;;;;;8.60;99.90;;;;;;5094195;28;20255;-67
2022/10/08 00:27:22;;;;;;;;;;;8.50;99.90;;;;;;5094129;28;20305;-67
2022/10/08 00:29:49;;;;;;;;;;;8.40;99.90;;;;;;5093876;28;20013;-67
2022/10/08 00:32:14;;;;;;;;;;;8.50;99.90;;;;;;5094097;28;19912;-67
2022/10/08 00:34:40;;;;;;;;;;;8.40;99.90;;;;;;5094057;28;20045;-67
2022/10/08 00:37:05;;;;;;;;;;;8.40;99.90;;;;;;5093865;28;19915;-67
2022/10/08 00:39:31;;;;;;;;;;;8.50;99.90;;;;;;5093735;28;19912;-67
2022/10/08 00:41:56;;;;;;;;;;;8.50;99.90;;;;;;5093931;28;20002;-67
2022/10/08 00:44:41;;;;;;;;;;;8.60;99.90;;;;;;5093716;28;19908;-67
2022/10/08 00:47:14;;;;;;;;;;;8.60;99.90;;;;;;5093668;28;19908;-68
2022/10/08 00:49:40;;;;;;;;;;;8.70;99.90;;;;;;5093948;28;19915;-67
2022/10/08 00:52:06;;;;;;;;;;;8.70;99.90;;;;;;5093925;28;19908;-67
2022/10/08 00:54:31;;;;;;;;;;;8.70;99.90;;;;;;5093710;28;19912;-67
2022/10/08 00:56:57;;;;;;;;;;;8.60;99.90;;;;;;5093653;28;20349;-67
2022/10/08 00:59:22;;;;;;;;;;;8.50;99.90;;;;;;5093854;28;19915;-67
2022/10/08 01:01:48;;;;;;;;;;;8.50;99.90;;;;;;5093511;28;20011;-68
2022/10/08 01:04:14;;;;;;;;;;;8.50;99.90;;;;;;5093489;28;19908;-67
2022/10/08 01:06:48;;;;;;;;;;;8.50;99.90;;;;;;5093575;28;19952;-67
2022/10/08 01:09:15;;;;;;;;;;;8.50;99.90;;;;;;5093534;28;19909;-67
2022/10/08 01:11:46;;;;;;;;;;;8.50;99.90;;;;;;5093451;28;19912;-68
2022/10/08 01:14:19;;;;;;;;;;;8.40;99.90;;;;;;5093477;28;19912;-67
2022/10/08 01:17:05;;;;;;;;;;;8.40;99.90;;;;;;5093456;28;20300;-67
2022/10/08 01:19:51;;;;;;;;;;;8.40;99.90;;;;;;5075198;28;19912;-67
2022/10/08 01:22:36;;;;;;;;;;;8.40;99.90;;;;;;5093326;28;19919;-67
2022/10/08 01:25:36;;;;;;;;;;;8.40;99.90;;;;;;5093287;28;19999;-68
2022/10/08 01:28:22;;;;;;;;;;;8.40;99.90;;;;;;5075353;28;19908;-67
2022/10/08 01:30:50;;;;;;;;;;;8.30;99.90;;;;;;5093335;28;19908;-69
2022/10/08 01:33:21;;;;;;;;;;;8.40;99.90;;;;;;5093513;28;20362;-67
2022/10/08 01:35:49;;;;;;;;;;;8.40;99.90;;;;;;5093676;28;19912;-68
2022/10/08 01:38:16;;;;;;;;;;;8.40;99.90;;;;;;5093600;28;20388;-67
2022/10/08 01:40:43;;;;;;;;;;;8.50;99.90;;;;;;5093211;28;20011;-67
2022/10/08 01:43:10;;;;;;;;;;;8.60;99.90;;;;;;5093640;28;19950;-67
2022/10/08 01:45:38;;;;;;;;;;;8.50;99.90;;;;;;5093518;28;19970;-67
2022/10/08 01:48:07;;;;;;;;;;;8.60;99.90;;;;;;5076862;28;19909;-67
2022/10/08 01:50:35;;;;;;;;;;;8.70;99.90;;;;;;5097058;28;20401;-67
2022/10/08 01:53:03;;;;;;;;;;;9.00;99.90;;;;;;5097120;28;20323;-66
2022/10/08 01:55:33;;;;;;;;;;;9.10;99.90;;;;;;5097013;28;19977;-67
2022/10/08 01:58:02;;;;;;;;;;;9.30;99.90;;;;;;5096759;28;20003;-67
2022/10/08 02:00:28;;;;;;;;;;;9.50;99.90;;;;;;5096825;28;19916;-67
2022/10/08 02:02:53;;;;;;;;;;;9.70;99.90;;;;;;5096711;28;19908;-67
2022/10/08 02:05:20;;;;;;;;;;;9.80;99.90;;;;;;5096898;28;20350;-68
2022/10/08 02:07:45;;;;;;;;;;;9.80;99.90;;;;;;5096590;28;19908;-67
2022/10/08 02:12:51;;;;;;;;;;;10.10;99.90;;;;;;5071326;28;19920;-67
2022/10/08 02:15:18;;;;;;;;;;;10.10;99.90;;;;;;5071497;28;20361;-67
2022/10/08 02:18:06;;;;;;;;;;;10.10;99.90;;;;;;5071485;28;20313;-68
2022/10/08 02:20:36;;;;;;;;;;;10.20;99.90;;;;;;5071407;28;19967;-66
2022/10/08 02:23:07;;;;;;;;;;;10.20;99.90;;;;;;5071486;28;20367;-67
2022/10/08 02:25:36;;;;;;;;;;;10.10;99.90;;;;;;5071724;28;20325;-66
2022/10/08 02:28:06;;;;;;;;;;;10.10;99.90;;;;;;5087036;28;19958;-66
2022/10/08 02:30:37;;;;;;;;;;;10.20;99.90;;;;;;5086972;28;20363;-66
2022/10/08 02:33:06;;;;;;;;;;;10.30;99.90;;;;;;5070999;28;19912;-66
2022/10/08 02:35:38;;;;;;;;;;;10.30;99.90;;;;;;5070841;28;20021;-66
2022/10/08 02:38:07;;;;;;;;;;;10.40;99.90;;;;;;5070851;28;19916;-67
2022/10/08 02:40:34;;;;;;;;;;;10.40;99.90;;;;;;5070622;28;19916;-66
2022/10/08 02:43:03;;;;;;;;;;;10.50;99.90;;;;;;5069211;28;20279;-66
2022/10/08 02:45:33;;;;;;;;;;;10.50;99.90;;;;;;5070455;28;19908;-66
2022/10/08 02:48:04;;;;;;;;;;;10.50;99.90;;;;;;5086081;28;19916;-66
2022/10/08 02:50:30;;;;;;;;;;;10.60;99.90;;;;;;5070563;28;19908;-67
2022/10/08 02:52:56;;;;;;;;;;;10.70;99.90;;;;;;5070299;28;19940;-66
2022/10/08 02:55:35;;;;;;;;;;;10.70;99.90;;;;;;5070143;28;19994;-67
2022/10/08 02:58:03;;;;;;;;;;;10.80;99.90;;;;;;5070244;28;20330;-66
2022/10/08 03:00:34;;;;;;;;;;;10.80;99.90;;;;;;5070404;28;19978;-67
2022/10/08 03:03:05;;;;;;;;;;;10.80;99.90;;;;;;5070276;28;19908;-67
2022/10/08 03:05:30;;;;;;;;;;;10.80;99.90;;;;;;5069950;28;19915;-66
2022/10/08 03:07:57;;;;;;;;;;;10.90;99.90;;;;;;5069863;28;19908;-67
2022/10/08 03:10:24;;;;;;;;;;;10.80;99.90;;;;;;5069578;28;19916;-63
2022/10/08 03:12:51;;;;;;;;;;;10.90;99.90;;;;;;5090379;28;19912;-66
2022/10/08 03:15:17;;;;;;;;;;;11.00;99.90;;;;;;5090308;28;19931;-67
2022/10/08 03:17:44;;;;;;;;;;;11.00;99.90;;;;;;5090237;28;20363;-67
2022/10/08 03:20:10;;;;;;;;;;;11.10;99.90;;;;;;5089929;28;19916;-66
2022/10/08 03:22:35;;;;;;;;;;;11.10;99.90;;;;;;5067098;28;19909;-66
2022/10/08 03:25:01;;;;;;;;;;;11.10;99.90;;;;;;5076671;28;19994;-66
2022/10/08 03:27:26;;;;;;;;;;;11.20;99.90;;;;;;5077067;28;20354;-67
2022/10/08 03:29:55;;;;;;;;;;;11.20;99.90;;;;;;5076543;28;19908;-66
2022/10/08 03:32:23;;;;;;;;;;;11.20;99.90;;;;;;5076468;28;20277;-67
2022/10/08 03:34:48;;;;;;;;;;;11.20;99.90;;;;;;5076233;28;19909;-66
2022/10/08 03:37:14;;;;;;;;;;;11.20;99.90;;;;;;5041603;28;20293;-67
2022/10/08 03:39:39;;;;;;;;;;;11.20;99.90;;;;;;5058190;28;20363;-66
2022/10/08 03:42:05;;;;;;;;;;;11.20;99.90;;;;;;5076317;28;19958;-66
2022/10/08 03:44:30;;;;;;;;;;;11.20;99.90;;;;;;5076056;28;19915;-66
2022/10/08 03:46:56;;;;;;;;;;;11.20;99.90;;;;;;5075982;28;20333;-67
2022/10/08 03:49:21;;;;;;;;;;;11.20;99.90;;;;;;5075935;28;19912;-67
2022/10/08 03:51:46;;;;;;;;;;;11.10;99.90;;;;;;5057942;28;19912;-67
2022/10/08 03:54:12;;;;;;;;;;;11.10;99.90;;;;;;5075838;28;20030;-66
2022/10/08 03:56:37;;;;;;;;;;;11.10;99.90;;;;;;5057880;28;19920;-67
2022/10/08 03:59:03;;;;;;;;;;;11.10;99.90;;;;;;5076002;28;19958;-66
2022/10/08 04:01:29;;;;;;;;;;;11.10;99.90;;;;;;5057936;28;19916;-66
2022/10/08 04:03:54;;;;;;;;;;;11.20;99.90;;;;;;5076176;28;19962;-67
2022/10/08 04:06:20;;;;;;;;;;;11.20;99.90;;;;;;5058027;28;19961;-66
2022/10/08 04:08:45;;;;;;;;;;;11.30;99.90;;;;;;5075800;28;19956;-67
2022/10/08 04:11:12;;;;;;;;;;;11.30;99.90;;;;;;5075284;28;20417;-66
2022/10/08 04:13:37;;;;;;;;;;;11.30;99.90;;;;;;5075536;28;19908;-66
2022/10/08 04:16:05;;;;;;;;;;;11.30;99.90;;;;;;5075655;28;20008;-66
2022/10/08 04:18:30;;;;;;;;;;;11.40;99.90;;;;;;5075680;28;20397;-66
2022/10/08 04:21:00;;;;;;;;;;;11.50;99.90;;;;;;5075297;28;19909;-67
2022/10/08 04:23:25;;;;;;;;;;;11.40;99.90;;;;;;5075518;28;20333;-66
2022/10/08 04:25:51;;;;;;;;;;;11.40;99.90;;;;;;5075434;28;19912;-67
2022/10/08 04:28:17;;;;;;;;;;;11.30;99.90;;;;;;5075461;28;19940;-67
2022/10/08 04:30:42;;;;;;;;;;;11.20;99.90;;;;;;5075270;28;20363;-67
2022/10/08 04:33:07;;;;;;;;;;;11.10;99.90;;;;;;5075090;28;19909;-67
2022/10/08 04:35:36;;;;;;;;;;;11.10;99.90;;;;;;5074291;28;19974;-67
2022/10/08 04:38:02;;;;;;;;;;;11.00;99.90;;;;;;5057098;28;19952;-67
2022/10/08 04:40:27;;;;;;;;;;;11.00;99.90;;;;;;5074870;28;19977;-67
2022/10/08 04:42:53;;;;;;;;;;;11.00;99.90;;;;;;5075104;28;19916;-67
2022/10/08 04:45:18;;;;;;;;;;;11.00;99.90;;;;;;5074811;28;19958;-67
2022/10/08 04:47:44;;;;;;;;;;;11.00;99.90;;;;;;5075010;28;20314;-67
2022/10/08 04:50:09;;;;;;;;;;;11.00;99.90;;;;;;5074760;28;19966;-67
2022/10/08 04:52:35;;;;;;;;;;;11.00;99.90;;;;;;5074562;28;20260;-67
2022/10/08 04:55:00;;;;;;;;;;;11.00;99.90;;;;;;5074861;28;19916;-68
2022/10/08 04:57:26;;;;;;;;;;;11.10;99.90;;;;;;5074536;28;19912;-67
2022/10/08 04:59:51;;;;;;;;;;;11.10;99.90;;;;;;5056704;28;19958;-68
2022/10/08 05:02:17;;;;;;;;;;;11.00;99.90;;;;;;5074706;28;19908;-67
2022/10/08 05:04:42;;;;;;;;;;;11.00;99.90;;;;;;5074448;28;20283;-68
2022/10/08 05:07:08;;;;;;;;;;;11.00;99.90;;;;;;5056579;28;19965;-67
2022/10/08 05:09:33;;;;;;;;;;;11.00;99.90;;;;;;5074331;28;19962;-68
2022/10/08 05:11:59;;;;;;;;;;;11.00;99.90;;;;;;5056311;28;19928;-68
2022/10/08 05:14:24;;;;;;;;;;;11.10;99.90;;;;;;5074578;28;19908;-68
2022/10/08 05:16:50;;;;;;;;;;;11.10;99.90;;;;;;5056461;28;19955;-68
2022/10/08 05:19:15;;;;;;;;;;;11.10;99.90;;;;;;5074537;28;20011;-68
2022/10/08 05:21:41;;;;;;;;;;;11.10;99.90;;;;;;5074500;28;19919;-67
2022/10/08 05:24:07;;;;;;;;;;;11.20;99.90;;;;;;5056180;28;19909;-67
2022/10/08 05:26:34;;;;;;;;;;;11.10;99.90;;;;;;5074364;28;19922;-68
2022/10/08 05:29:00;;;;;;;;;;;11.20;99.90;;;;;;5056174;28;20282;-67
2022/10/08 05:31:26;;;;;;;;;;;11.20;99.90;;;;;;5073894;28;19920;-68
2022/10/08 05:33:52;;;;;;;;;;;11.20;99.90;;;;;;5074009;28;19919;-67
2022/10/08 05:36:19;;;;;;;;;;;11.20;99.90;;;;;;5073914;28;19908;-68
2022/10/08 05:38:44;;;;;;;;;;;11.20;99.90;;;;;;5073893;28;19908;-68
2022/10/08 05:41:11;;;;;;;;;;;11.20;99.90;;;;;;5074159;28;19915;-67
2022/10/08 05:43:37;;;;;;;;;;;11.20;99.90;;;;;;5074262;28;20366;-68
2022/10/08 05:46:02;;;;;;;;;;;11.20;99.90;;;;;;5073610;28;19916;-68
2022/10/08 05:48:28;;;;;;;;;;;11.20;99.90;;;;;;5074082;28;19913;-67
2022/10/08 05:50:53;;;;;;;;;;;11.30;99.90;;;;;;5056146;28;20092;-68
2022/10/08 05:53:19;;;;;;;;;;;11.30;99.90;;;;;;5073964;28;20302;-67
2022/10/08 05:55:44;;;;;;;;;;;11.30;99.90;;;;;;5074012;28;19958;-67
2022/10/08 05:58:10;;;;;;;;;;;11.20;99.90;;;;;;5073982;28;19912;-67
2022/10/08 06:00:35;;;;;;;;;;;11.30;99.90;;;;;;5055790;28;19999;-67
2022/10/08 06:03:01;;;;;;;;;;;11.30;99.90;;;;;;5039203;28;19978;-67
2022/10/08 06:05:26;;;;;;;;;;;11.30;99.90;;;;;;5073630;28;19909;-68
2022/10/08 06:07:56;;;;;;;;;;;11.30;99.90;;;;;;5073610;28;19909;-68
2022/10/08 06:10:21;;;;;;;;;;;11.30;99.90;;;;;;5073853;28;19973;-67
2022/10/08 06:12:47;;;;;;;;;;;11.20;99.90;;;;;;5073339;28;19966;-67
2022/10/08 06:15:13;;;;;;;;;;;11.30;99.90;;;;;;5073495;28;19908;-67
2022/10/08 06:17:41;;;;;;;;;;;11.30;99.90;;;;;;5073578;28;20122;-67
2022/10/08 06:20:07;;;;;;;;;;;11.30;99.90;;;;;;5073626;28;20278;-67
2022/10/08 06:22:32;;;;;;;;;;;11.30;99.90;;;;;;5073834;28;19908;-68
2022/10/08 06:24:58;;;;;;;;;;;11.30;99.90;;;;;;5055364;28;19915;-68
2022/10/08 06:27:23;;;;;;;;;;;11.30;99.90;;;;;;5073483;28;19916;-68
2022/10/08 06:29:49;;;;;;;;;;;11.30;99.90;;;;;;5073628;28;19908;-67
2022/10/08 06:32:14;;;;;;;;;;;11.30;99.90;;;;;;5055362;28;19916;-69
2022/10/08 06:34:40;;;;;;;;;;;11.40;99.90;;;;;;5038854;28;19909;-68
2022/10/08 06:37:06;;;;;;;;;;;11.30;99.90;;;;;;5073591;28;19909;-67
2022/10/08 06:39:31;;;;;;;;;;;11.30;99.90;;;;;;5055559;28;19958;-68
2022/10/08 06:41:57;;;;;;;;;;;11.30;99.90;;;;;;5073253;28;19958;-69
2022/10/08 06:44:22;;;;;;;;;;;11.30;99.90;;;;;;5073206;28;19915;-68
2022/10/08 06:46:48;;;;;;;;;;;11.40;99.90;;;;;;5073636;28;19958;-68
2022/10/08 06:49:13;;;;;;;;;;;11.40;99.90;;;;;;5055778;28;19946;-67
2022/10/08 06:51:39;;;;;;;;;;;11.40;99.90;;;;;;5073565;28;20366;-68
2022/10/08 06:54:05;;;;;;;;;;;11.40;99.90;;;;;;5073169;28;19909;-68
2022/10/08 06:56:30;;;;;;;;;;;11.50;99.90;;;;;;5073421;28;19909;-68
2022/10/08 06:58:55;;;;;;;;;;;11.50;99.90;;;;;;5058122;28;19950;-68
2022/10/08 07:01:22;;;;;;;;;;;11.50;99.90;;;;;;5077321;28;19920;-68
2022/10/08 07:03:49;;;;;;;;;;;11.40;99.90;;;;;;5059065;28;19908;-68
2022/10/08 07:06:15;;;;;;;;;;;11.40;99.90;;;;;;5077095;28;19915;-67
2022/10/08 07:08:40;;;;;;;;;;;11.40;99.90;;;;;;5076994;28;19912;-67
2022/10/08 07:11:07;;;;;;;;;;;11.50;99.90;;;;;;5076466;28;19920;-67
2022/10/08 07:13:33;;;;;;;;;;;11.50;99.90;;;;;;5077146;28;19915;-68
2022/10/08 07:15:59;;;;;;;;;;;11.50;99.90;;;;;;5076705;28;19909;-68
2022/10/08 07:18:25;;;;;;;;;;;11.50;99.90;;;;;;5076825;28;19916;-68
2022/10/08 07:20:54;;;;;;;;;;;11.50;99.90;;;;;;5076626;28;19908;-69
2022/10/08 07:23:20;;;;;;;;;;;11.50;99.90;;;;;;5077006;28;19960;-69
2022/10/08 07:26:05;;;;;;;;;;;11.50;99.90;;;;;;5076521;28;20041;-67
2022/10/08 07:28:33;;;;;;;;;;;11.60;99.90;;;;;;5076334;28;19915;-68
2022/10/08 07:31:02;;;;;;;;;;;11.60;99.90;;;;;;5076628;28;19958;-68
2022/10/08 07:33:28;;;;;;;;;;;11.60;99.90;;;;;;5058434;28;19908;-67
2022/10/08 07:35:53;;;;;;;;;;;11.70;99.90;;;;;;5041831;28;20062;-68
2022/10/08 07:38:19;;;;;;;;;;;11.70;99.90;;;;;;5076379;28;19952;-67
2022/10/08 07:40:45;;;;;;;;;;;11.80;99.90;;;;;;5076173;28;19908;-67
2022/10/08 07:43:11;;;;;;;;;;;11.80;99.90;;;;;;5076387;28;19909;-67
2022/10/08 07:45:42;;;;;;;;;;;11.80;99.90;;;;;;5076079;28;20389;-67
2022/10/08 07:48:08;;;;;;;;;;;11.80;99.90;;;;;;5076316;28;19909;-67
2022/10/08 07:50:33;;;;;;;;;;;11.90;99.90;;;;;;5076051;28;19930;-67
2022/10/08 07:52:58;;;;;;;;;;;11.90;99.90;;;;;;5076229;28;19913;-67
2022/10/08 07:55:24;;;;;;;;;;;11.90;99.90;;;;;;5058063;28;19999;-67
2022/10/08 07:57:49;;;;;;;;;;;11.90;99.90;;;;;;5075854;28;20390;-67
2022/10/08 08:00:15;;;;;;;;;;;11.90;99.90;;;;;;5075880;28;19912;-67
2022/10/08 08:02:40;;;;;;;;;;;12.00;99.90;;;;;;5075942;28;19908;-67
2022/10/08 08:05:06;;;;;;;;;;;12.00;99.90;;;;;;5075685;28;19908;-67
2022/10/08 08:07:32;;;;;;;;;;;12.10;99.90;;;;;;5075572;28;19912;-67
2022/10/08 08:09:57;;;;;;;;;;;12.20;99.90;;;;;;5057569;28;19908;-68
2022/10/08 08:12:23;;;;;;;;;;;12.20;99.90;;;;;;5075452;28;19921;-68
2022/10/08 08:14:48;;;;;;;;;;;12.20;99.90;;;;;;5057722;28;20252;-67
2022/10/08 08:17:13;;;;;;;;;;;12.20;99.90;;;;;;5075453;28;19909;-67
2022/10/08 08:19:39;;;;;;;;;;;12.20;99.90;;;;;;5075457;28;19940;-67
2022/10/08 08:22:05;;;;;;;;;;;12.20;99.90;;;;;;5075394;28;19954;-67
2022/10/08 08:24:31;;;;;;;;;;;12.30;99.90;;;;;;5075672;28;19916;-67
2022/10/08 08:26:56;;;;;;;;;;;12.30;99.90;;;;;;5075578;28;19908;-67
2022/10/08 08:29:22;;;;;;;;;;;12.30;99.90;;;;;;5075316;28;19920;-67
2022/10/08 08:31:48;;;;;;;;;;;12.30;99.90;;;;;;5057274;28;19919;-68
2022/10/08 08:34:14;;;;;;;;;;;12.50;99.90;;;;;;5075515;28;20011;-66
2022/10/08 08:36:41;;;;;;;;;;;12.50;99.90;;;;;;5075293;28;19915;-66
2022/10/08 08:39:08;;;;;;;;;;;12.60;99.90;;;;;;5075330;28;19909;-66
2022/10/08 08:41:54;;;;;;;;;;;13.40;99.90;;;;;;5075458;28;20275;-68
2022/10/08 08:44:22;;;;;;;;;;;14.20;99.90;;;;;;5074852;28;19915;-68
2022/10/08 08:47:08;;;;;;;;;;;15.20;99.90;;;;;;5072868;28;19908;-66
2022/10/08 08:49:40;;;;;;;;;;;15.20;99.90;;;;;;5069176;28;19909;-68
2022/10/08 08:52:05;;;;;;;;;;;15.20;99.90;;;;;;5065475;28;19912;-68
2022/10/08 08:54:31;;;;;;;;;;;14.80;99.90;;;;;;5063455;28;20000;-67
2022/10/08 08:57:02;;;;;;;;;;;14.40;99.90;;;;;;5054510;28;19916;-67
2022/10/08 08:59:32;;;;;;;;;;;13.90;99.90;;;;;;5054878;28;20003;-67
2022/10/08 09:01:59;;;;;;;;;;;13.90;99.90;;;;;;5056133;28;19917;-67
2022/10/08 09:04:34;;;;;;;;;;;13.70;99.90;;;;;;5061920;28;19951;-67
2022/10/08 09:07:02;;;;;;;;;;;14.00;99.90;;;;;;5073915;28;19908;-67
2022/10/08 09:09:32;;;;;;;;;;;14.60;99.90;;;;;;5073013;28;20305;-68
2022/10/08 09:11:58;;;;;;;;;;;14.80;99.90;;;;;;5053151;28;19921;-68
2022/10/08 09:14:29;;;;;;;;;;;15.50;99.90;;;;;;5053124;28;19917;-68
2022/10/08 09:16:55;;;;;;;;;;;15.40;99.90;;;;;;5054520;28;20252;-68
2022/10/08 09:19:21;;;;;;;;;;;14.80;99.90;;;;;;5054491;28;19909;-68
2022/10/08 09:21:46;;;;;;;;;;;14.40;99.90;;;;;;5053880;28;20264;-67
2022/10/08 09:24:13;;;;;;;;;;;13.90;99.90;;;;;;5054382;28;19909;-68
2022/10/08 09:26:39;;;;;;;;;;;13.70;99.90;;;;;;5054423;28;19916;-67
2022/10/08 09:29:04;;;;;;;;;;;13.60;99.90;;;;;;5052813;28;19916;-67
2022/10/08 09:31:34;;;;;;;;;;;13.60;99.90;;;;;;5054294;28;19917;-67
2022/10/08 09:34:15;;;;;;;;;;;13.70;99.90;;;;;;5053977;28;19909;-68
2022/10/08 09:36:50;;;;;;;;;;;14.10;99.90;;;;;;5054182;28;19909;-68
2022/10/08 09:39:17;;;;;;;;;;;14.20;99.90;;;;;;5053825;28;19915;-69
2022/10/08 09:41:43;;;;;;;;;;;14.10;99.90;;;;;;5053868;28;20294;-67
2022/10/08 09:44:11;;;;;;;;;;;13.80;99.90;;;;;;5053966;28;20327;-67
2022/10/08 09:46:37;;;;;;;;;;;13.90;99.90;;;;;;5053861;28;19909;-68
2022/10/08 09:49:18;;;;;;;;;;;14.70;99.90;;;;;;5053831;28;19962;-67
2022/10/08 09:51:44;;;;;;;;;;;15.70;99.90;;;;;;5053601;28;19964;-68
2022/10/08 09:54:11;;;;;;;;;;;16.60;99.90;;;;;;5053660;28;20338;-68
2022/10/08 09:56:37;;;;;;;;;;;17.10;99.90;;;;;;5053674;28;19908;-68
2022/10/08 09:59:04;;;;;;;;;;;16.80;99.90;;;;;;5053762;28;20351;-68
2022/10/08 10:01:30;;;;;;;;;;;16.50;99.90;;;;;;5069162;28;19909;-68
2022/10/08 10:03:56;;;;;;;;;;;17.10;99.90;;;;;;5053875;28;20074;-68
2022/10/08 10:06:24;;;;;;;;;;;17.30;99.90;;;;;;5053775;28;19913;-68
2022/10/08 10:08:55;;;;;;;;;;;17.00;99.90;;;;;;5053785;28;19913;-68
2022/10/08 10:11:27;;;;;;;;;;;16.50;99.90;;;;;;5051964;28;19921;-68
2022/10/08 10:13:53;;;;;;;;;;;16.30;99.90;;;;;;5053413;28;19912;-68
2022/10/08 10:16:22;;;;;;;;;;;16.00;99.90;;;;;;5052322;28;20287;-68
2022/10/08 10:18:51;;;;;;;;;;;15.60;99.90;;;;;;5053451;28;20004;-68
2022/10/08 10:21:22;;;;;;;;;;;15.00;99.90;;;;;;5053605;28;19916;-67
2022/10/08 10:23:54;;;;;;;;;;;14.70;99.90;;;;;;5053392;28;19956;-68
2022/10/08 10:26:24;;;;;;;;;;;15.50;99.90;;;;;;5053373;28;19909;-67
2022/10/08 10:28:58;;;;;;;;;;;16.40;99.90;;;;;;5053280;28;19909;-68
2022/10/08 10:31:42;;;;;;;;;;;17.50;99.90;;;;;;5053259;28;19912;-68
2022/10/08 10:34:11;;;;;;;;;;;17.40;99.90;;;;;;5055173;28;19908;-67
2022/10/08 10:36:41;;;;;;;;;;;17.00;99.90;;;;;;5057585;28;19915;-69
2022/10/08 10:39:11;;;;;;;;;;;16.40;99.90;;;;;;5057526;28;19952;-68
2022/10/08 10:41:42;;;;;;;;;;;16.20;99.90;;;;;;5057341;28;19915;-68
2022/10/08 10:44:16;;;;;;;;;;;16.70;99.90;;;;;;5057477;28;19912;-68
2022/10/08 10:46:51;;;;;;;;;;;16.40;99.90;;;;;;5055910;28;19913;-68
2022/10/08 10:49:19;;;;;;;;;;;16.10;99.90;;;;;;5057314;28;19909;-67
2022/10/08 10:51:54;;;;;;;;;;;15.40;99.90;;;;;;5057231;28;20338;-67
2022/10/08 10:54:26;;;;;;;;;;;15.10;99.90;;;;;;5057253;28;19909;-61
2022/10/08 10:56:58;;;;;;;;;;;15.10;99.90;;;;;;5072351;28;19920;-62
2022/10/08 10:59:31;;;;;;;;;;;16.10;99.90;;;;;;5072373;28;20359;-61
2022/10/08 11:02:02;;;;;;;;;;;17.10;99.90;;;;;;5055567;28;19959;-61
2022/10/08 11:04:47;;;;;;;;;;;17.30;99.90;;;;;;5057154;28;20359;-62
2022/10/08 11:07:22;;;;;;;;;;;17.10;99.90;;;;;;5056731;28;20367;-60
2022/10/08 11:10:08;;;;;;;;;;;17.20;99.90;;;;;;5056709;28;19948;-61
2022/10/08 11:12:43;;;;;;;;;;;17.20;99.90;;;;;;5074300;28;19943;-60
2022/10/08 11:15:19;;;;;;;;;;;17.00;99.90;;;;;;5076508;28;19916;-61
2022/10/08 11:18:05;;;;;;;;;;;16.70;99.90;;;;;;5058551;28;19958;-61
2022/10/08 11:20:43;;;;;;;;;;;16.40;99.90;;;;;;5076576;28;20362;-62
2022/10/08 11:23:29;;;;;;;;;;;16.40;99.90;;;;;;5076430;28;19962;-62
2022/10/08 11:25:59;;;;;;;;;;;16.50;99.90;;;;;;5058349;28;19913;-62
2022/10/08 11:28:45;;;;;;;;;;;16.00;99.90;;;;;;5076392;28;19931;-62
2022/10/08 11:31:17;;;;;;;;;;;15.70;99.90;;;;;;5076173;28;19912;-62
2022/10/08 11:33:43;;;;;;;;;;;15.70;99.90;;;;;;5076490;28;19912;-62
2022/10/08 11:36:31;;;;;;;;;;;16.10;99.90;;;;;;5076510;28;20007;-61
2022/10/08 11:39:20;;;;;;;;;;;16.20;99.90;;;;;;5075999;28;20408;-61
2022/10/08 11:41:57;;;;;;;;;;;16.70;99.90;;;;;;5075672;28;19909;-61
2022/10/08 11:44:23;;;;;;;;;;;16.80;99.90;;;;;;5075596;28;20003;-60
2022/10/08 11:46:48;;;;;;;;;;;17.10;99.90;;;;;;5076291;28;19987;-61
2022/10/08 11:51:52;;;;;;;;;;;17.30;99.90;;;;;;5091317;27;19918;-60
2022/10/08 11:54:33;;;;;;;;;;;16.70;99.90;;;;;;5091416;28;19962;-61
2022/10/08 11:57:19;;;;;;;;;;;16.90;99.90;;;;;;5091365;28;20367;-61
2022/10/08 11:59:47;;;;;;;;;;;17.20;99.90;;;;;;5091084;28;19909;-61
2022/10/08 12:02:32;;;;;;;;;;;17.30;99.90;;;;;;5090977;28;19913;-61
2022/10/08 12:04:59;;;;;;;;;;;17.40;99.90;;;;;;5090840;28;19916;-61
2022/10/08 12:07:33;;;;;;;;;;;17.60;99.90;;;;;;5123850;28;20007;-60
2022/10/08 12:10:08;;;;;;;;;;;17.50;99.90;;;;;;5091071;28;19912;-60
2022/10/08 12:12:52;;;;;;;;;;;17.00;99.90;;;;;;5091015;28;19915;-61
2022/10/08 12:21:07;;;;;;;;;;;15.90;99.90;;;;;;5071065;28;20290;-60
2022/10/08 12:26:13;;;;;;;;;;;16.10;99.90;;;;;;5079425;27;19917;-61
2022/10/08 12:28:44;;;;;;;;;;;16.70;99.90;;;;;;5071227;28;19913;-60
2022/10/08 12:31:27;;;;;;;;;;;16.90;99.90;;;;;;5071112;28;19956;-61
2022/10/08 12:33:54;;;;;;;;;;;17.10;99.90;;;;;;5071079;28;20417;-61
2022/10/08 12:36:26;;;;;;;;;;;17.30;99.90;;;;;;5070850;28;19915;-60
2022/10/08 12:38:57;;;;;;;;;;;17.30;99.90;;;;;;5070856;28;19961;-60
2022/10/08 12:41:24;;;;;;;;;;;17.30;99.90;;;;;;5070726;28;20375;-60
2022/10/08 12:44:01;;;;;;;;;;;17.30;99.90;;;;;;5070851;28;19909;-60
2022/10/08 12:46:46;;;;;;;;;;;17.10;99.90;;;;;;5070802;28;19908;-60
2022/10/08 12:49:24;;;;;;;;;;;17.30;99.90;;;;;;5070657;28;19913;-61
2022/10/08 12:52:09;;;;;;;;;;;17.30;99.90;;;;;;5069189;28;19958;-60
2022/10/08 12:54:35;;;;;;;;;;;17.40;99.90;;;;;;5070806;28;19909;-61
2022/10/08 12:57:06;;;;;;;;;;;17.60;99.90;;;;;;5086046;28;19909;-61
2022/10/08 12:59:32;;;;;;;;;;;17.40;99.90;;;;;;5070639;28;19951;-61
2022/10/08 13:01:57;;;;;;;;;;;17.60;99.90;;;;;;5069029;28;20442;-60
2022/10/08 13:04:24;;;;;;;;;;;17.60;99.90;;;;;;5070390;28;19919;-61
2022/10/08 13:06:51;;;;;;;;;;;17.60;99.90;;;;;;5070549;28;19966;-60
2022/10/08 13:09:24;;;;;;;;;;;17.40;99.90;;;;;;5070127;28;19915;-62
2022/10/08 13:11:49;;;;;;;;;;;17.50;99.90;;;;;;5070481;28;19916;-61
2022/10/08 13:14:23;;;;;;;;;;;17.70;99.90;;;;;;5070116;28;20359;-61
2022/10/08 13:16:48;;;;;;;;;;;17.80;99.90;;;;;;5070337;28;19909;-61
2022/10/08 13:19:16;;;;;;;;;;;17.90;99.90;;;;;;5085710;28;19916;-61
2022/10/08 13:21:52;;;;;;;;;;;17.60;99.90;;;;;;5070292;28;20407;-62
2022/10/08 13:24:20;;;;;;;;;;;17.50;99.90;;;;;;5069626;28;19921;-60
2022/10/08 13:26:48;;;;;;;;;;;17.50;99.90;;;;;;5070061;28;19952;-61
2022/10/08 13:29:25;;;;;;;;;;;17.40;99.90;;;;;;5102364;28;20359;-61
2022/10/08 13:31:54;;;;;;;;;;;17.50;99.90;;;;;;5069967;28;19912;-61
2022/10/08 13:34:21;;;;;;;;;;;17.60;99.90;;;;;;5069830;28;20359;-61
2022/10/08 13:36:48;;;;;;;;;;;17.60;99.90;;;;;;5060538;28;20003;-61
2022/10/08 13:39:19;;;;;;;;;;;17.70;99.90;;;;;;5056394;28;19913;-61
2022/10/08 13:41:48;;;;;;;;;;;17.70;99.90;;;;;;5056668;28;19913;-61
2022/10/08 13:44:13;;;;;;;;;;;17.60;99.90;;;;;;5056294;28;19956;-61
2022/10/08 13:46:39;;;;;;;;;;;17.30;99.90;;;;;;5056325;28;19909;-61
2022/10/08 13:49:15;;;;;;;;;;;17.40;99.90;;;;;;5088919;28;20343;-61
2022/10/08 13:51:41;;;;;;;;;;;17.30;99.90;;;;;;5056491;28;19913;-61
2022/10/08 13:54:08;;;;;;;;;;;17.30;99.90;;;;;;5054854;28;20363;-61
2022/10/08 13:56:33;;;;;;;;;;;17.20;99.90;;;;;;5056110;28;20299;-61
2022/10/08 13:58:59;;;;;;;;;;;17.00;99.90;;;;;;5054648;28;19912;-60
2022/10/08 14:01:24;;;;;;;;;;;17.10;99.90;;;;;;5056255;28;19962;-61
2022/10/08 14:03:50;;;;;;;;;;;16.90;99.90;;;;;;5056044;28;19909;-60
2022/10/08 14:06:15;;;;;;;;;;;16.90;99.90;;;;;;5055832;28;19908;-61
2022/10/08 14:08:41;;;;;;;;;;;16.80;99.90;;;;;;5055777;28;19915;-62
2022/10/08 14:11:06;;;;;;;;;;;16.80;99.90;;;;;;5055678;28;19909;-60
2022/10/08 14:13:32;;;;;;;;;;;16.90;99.90;;;;;;5055745;28;19908;-61
2022/10/08 14:15:57;;;;;;;;;;;17.00;99.90;;;;;;5088157;28;19909;-61
2022/10/08 14:18:23;;;;;;;;;;;17.00;99.90;;;;;;5054351;28;19909;-60
2022/10/08 14:20:50;;;;;;;;;;;16.80;99.90;;;;;;5055845;28;19916;-61
2022/10/08 14:23:15;;;;;;;;;;;16.50;99.90;;;;;;5055740;28;19909;-60
2022/10/08 14:25:41;;;;;;;;;;;16.50;99.90;;;;;;5087549;28;20375;-62
2022/10/08 14:28:06;;;;;;;;;;;16.50;99.90;;;;;;5054128;28;20046;-61
2022/10/08 14:30:32;;;;;;;;;;;16.60;99.90;;;;;;5055379;28;19916;-60
2022/10/08 14:32:57;;;;;;;;;;;16.70;99.90;;;;;;5087595;28;19932;-60
2022/10/08 14:35:23;;;;;;;;;;;16.50;99.90;;;;;;5055565;28;19932;-61
2022/10/08 14:37:48;;;;;;;;;;;16.30;99.90;;;;;;5055519;28;20363;-61
2022/10/08 14:40:16;;;;;;;;;;;16.10;99.90;;;;;;5055550;28;20349;-62